• Join FlightAware (Why Join?)
  • Login
  • US Flag 
01:19PM EST


 

Airport Tracker/Info


-or-


 

Live Flight TrackerFlight Track Log ✈ AVA30 ✈ 28-Jul-2013 ✈ SKMD / EOH - KMIA

Flight Track Log - Related Links

Times and Time Zones

All times are in EDT time to prevent confusion due to time zone crossing. See the AVA30 flight status page for this flight to view local times or setup timezone preferences in your user account.

Time Position Orientation Groundspeed Altitude Reporting Facility
EDT Latitude Longitude Course Direction KTS MPH feet Rate Location/Type
11:58AM 6.5610 -75.4690 351° North 340 391 14,900  Level FlightAware
11:59AM 6.6270 -75.4800 351° North 374 430 15,400 300 Climbing FlightAware
12:00PM 6.7170 -75.4940 351° North 377 434 15,500 60 Climbing FlightAware
12:00PM 6.7700 -75.5030 350° North 377 434 15,500  Level FlightAware
12:01PM 6.8230 -75.5110 351° North 377 434 15,500  Level FlightAware
12:02PM 6.8930 -75.5220 351° North 377 434 15,500  Level FlightAware
12:02PM 6.9490 -75.5310 351° North 377 434 15,500 2,280 Level FlightAware
12:05PM 7.2044 -75.5905 347° North  Level Estimated
12:06PM 7.3223 -75.6179 347° North  Level Estimated
12:06PM 7.4650 -75.6180 347° North 447 514 25,400  Level FlightAware
12:07PM 7.5570 -75.6320 351° North 457 526 26,000 840 Climbing FlightAware
12:07PM 7.6400 -75.6460 351° North 459 528 26,700 960 Climbing FlightAware
12:08PM 7.7390 -75.6620 351° North 464 534 27,400 900 Climbing FlightAware
12:09PM 7.8230 -75.6760 351° North 469 540 28,000 780 Climbing FlightAware
12:09PM 7.9120 -75.6910 351° North 473 544 28,500 660 Climbing FlightAware
12:10PM 8.0090 -75.7070 351° North 480 552 29,000 660 Climbing FlightAware
12:11PM 8.0970 -75.7210 351° North 484 557 29,500 780 Climbing FlightAware
12:12PM 8.1550 -75.7300 351° North 481 554 30,100 900 Climbing FlightAware
12:12PM 8.2920 -75.7530 351° North 478 550 30,900 420 Climbing FlightAware
12:13PM 8.3810 -75.7670 351° North 478 550 30,900 1,740 Level FlightAware
12:14PM 8.5180 -75.7900 351° North 454 522 33,800 1,260 Climbing FlightAware
12:15PM 8.6590 -75.8130 351° North 454 522 33,800  Level FlightAware
12:16PM 8.7220 -75.8230 351° North 454 522 33,800 480 Level FlightAware
12:18PM 8.9690 -75.8640 351° North 439 505 35,100 480 Climbing FlightAware
12:19PM 9.0310 -75.8740 351° North 439 505 35,100  Level FlightAware
12:19PM 9.0960 -75.8840 351° North 439 505 35,100  Level FlightAware
12:22PM 9.3725 -75.9513 346° North  Level Estimated
12:22PM 9.3870 -75.9310 346° North 439 505 35,100  Level FlightAware
12:23PM 9.5440 -75.9590 350° North 435 501 36,000 540 Climbing FlightAware
12:24PM 9.6390 -75.9750 351° North 436 502 36,000  Level FlightAware
12:24PM 9.7340 -75.9910 351° North 438 504 36,000  Level FlightAware
12:25PM 9.8140 -76.0040 351° North 439 505 36,000  Level FlightAware
12:26PM 9.8940 -76.0170 351° North 440 506 36,000  Level FlightAware
12:26PM 9.9750 -76.0310 350° North 440 506 36,000  Level FlightAware
12:27PM 10.0670 -76.0460 351° North 441 507 36,000  Level FlightAware
12:28PM 10.1450 -76.0590 351° North 441 507 36,000  Level FlightAware
12:29PM 10.2690 -76.0800 351° North 443 510 36,000  Level FlightAware
12:29PM 10.3490 -76.0930 351° North 444 511 36,000  Level FlightAware
12:30PM 10.4220 -76.1050 351° North 444 511 36,000  Level FlightAware
12:30PM 10.4730 -76.1140 350° North 445 512 36,000  Level FlightAware
12:31PM 10.5530 -76.1270 351° North 447 514 36,000  Level FlightAware
12:32PM 10.6360 -76.1410 351° North 448 516 36,000  Level FlightAware
12:32PM 10.7290 -76.1560 351° North 448 516 36,000  Level FlightAware
12:33PM 10.7900 -76.1660 351° North 447 514 36,000  Level FlightAware
12:34PM 10.8810 -76.1820 350° North 447 514 36,000  Level FlightAware
12:34PM 10.9640 -76.1960 351° North 447 514 36,000  Level FlightAware
12:35PM 11.0350 -76.2070 351° North 446 513 36,000  Level FlightAware
12:36PM 11.1180 -76.2210 351° North 446 513 36,000  Level FlightAware
12:36PM 11.2080 -76.2360 351° North 446 513 36,000  Level FlightAware
12:38PM 11.3490 -76.2600 351° North 447 514 36,000  Level FlightAware
12:38PM 11.4260 -76.2730 351° North 450 518 36,000  Level FlightAware
12:39PM 11.5110 -76.2870 351° North 450 518 36,000  Level FlightAware
12:40PM 11.6050 -76.3030 351° North 452 520 36,000  Level FlightAware
12:40PM 11.6930 -76.3180 351° North 453 521 36,000  Level FlightAware
12:41PM 11.7600 -76.3290 351° North 453 521 36,000  Level FlightAware
12:42PM 11.8430 -76.3420 351° North 453 521 36,000  Level FlightAware
12:43PM 11.9450 -76.3580 351° North 453 521 36,000  Level FlightAware
12:43PM 12.0100 -76.3690 351° North 453 521 36,000  Level FlightAware
12:44PM 12.1590 -76.3960 350° North 456 525 36,000  Level FlightAware
12:45PM 12.2400 -76.4090 351° North 456 525 36,000  Level FlightAware
12:46PM 12.3060 -76.4200 351° North 456 525 36,000  Level FlightAware
12:46PM 12.3910 -76.4330 352° North 456 525 36,000  Level FlightAware
12:47PM 12.4550 -76.4440 350° North 456 525 36,000  Level FlightAware
12:48PM 12.5410 -76.4580 351° North 456 525 36,000  Level FlightAware
12:48PM 12.6050 -76.4680 351° North 456 525 36,000  Level FlightAware
12:49PM 12.6900 -76.4820 351° North 456 525 36,000  Level FlightAware
12:50PM 12.7540 -76.4920 351° North 456 525 36,000  Level FlightAware
12:51PM 12.8390 -76.5060 351° North 456 525 36,000  Level FlightAware
12:51PM 12.9030 -76.5160 351° North 456 525 36,000  Level FlightAware
12:52PM 12.9880 -76.5300 351° North 456 525 36,000  Level FlightAware
12:53PM 13.0530 -76.5410 351° North 456 525 36,000  Level FlightAware
12:53PM 13.1360 -76.5540 351° North 456 525 36,000 -300 Level FlightAware
12:56PM 13.3912 -76.6241 345° North  Level Estimated
12:57PM 13.5081 -76.6562 345° North  Level Estimated
12:58PM 13.6250 -76.6884 345° North  Level Estimated
12:59PM 13.7419 -76.7207 345° North  Level Estimated
01:00PM 13.8588 -76.7529 345° North  Level Estimated
01:01PM 13.9756 -76.7852 345° North  Level Estimated
01:02PM 14.0925 -76.8175 345° North  Level Estimated
01:03PM 14.2094 -76.8499 345° North  Level Estimated
01:04PM 14.3262 -76.8822 345° North  Level Estimated
01:05PM 14.4431 -76.9147 345° North  Level Estimated
01:06PM 14.5599 -76.9471 345° North  Level Estimated
01:07PM 14.6768 -76.9796 345° North  Level Estimated
01:08PM 14.7936 -77.0121 345° North  Level Estimated
01:09PM 14.9105 -77.0447 345° North  Level Estimated
01:10PM 15.0273 -77.0772 345° North  Level Estimated
01:11PM 15.1441 -77.1099 345° North  Level Estimated
01:12PM 15.2609 -77.1425 345° North  Level Estimated
01:13PM 15.3778 -77.1752 345° North  Level Estimated
01:14PM 15.4946 -77.2080 345° North  Level Estimated
01:15PM 15.6114 -77.2407 345° North  Level Estimated
01:16PM 15.7282 -77.2736 345° North  Level Estimated
01:17PM 15.8450 -77.3064 345° North  Level Estimated
01:18PM 15.9618 -77.3393 345° North  Level Estimated
01:19PM 16.0786 -77.3722 345° North  Level Estimated
01:20PM 16.1953 -77.4052 345° North  Level Estimated
01:21PM 16.3121 -77.4382 345° North  Level Estimated
01:22PM 16.4289 -77.4712 345° North  Level Estimated
01:23PM 16.5457 -77.5043 345° North  Level Estimated
01:24PM 16.6624 -77.5374 345° North  Level Estimated
01:25PM 16.7792 -77.5706 345° North  Level Estimated
01:26PM 16.8959 -77.6038 345° North  Level Estimated
01:27PM 17.0127 -77.6370 345° North  Level Estimated
01:28PM 17.1294 -77.6703 345° North  Level Estimated
01:29PM 17.2462 -77.7036 345° North  Level Estimated
01:30PM 17.3629 -77.7370 345° North  Level Estimated
01:31PM 17.4796 -77.7704 345° North  Level Estimated
01:32PM 17.5963 -77.8038 345° North  Level Estimated
01:33PM 17.7131 -77.8373 345° North  Level Estimated
01:34PM 17.8298 -77.8709 345° North  Level Estimated
01:35PM 17.9465 -77.9045 345° North  Level Estimated
01:36PM 18.0632 -77.9381 345° North  Level Estimated
01:37PM 18.1798 -77.9718 345° North  Level Estimated
01:38PM 18.2965 -78.0055 345° North  Level Estimated
01:39PM 18.4132 -78.0392 345° North  Level Estimated
01:40PM 18.5299 -78.0731 345° North  Level Estimated
01:41PM 18.6466 -78.1069 345° North  Level Estimated
01:42PM 18.7632 -78.1408 345° North  Level Estimated
01:43PM 18.8799 -78.1748 345° North  Level Estimated
01:44PM 18.9965 -78.2088 345° North  Level Estimated
01:45PM 19.1132 -78.2428 345° North  Level Estimated
01:46PM 19.2298 -78.2769 345° North  Level Estimated
01:47PM 19.3464 -78.3110 345° North  Level Estimated
01:48PM 19.4631 -78.3452 345° North  Level Estimated
01:49PM 19.5797 -78.3795 345° North  Level Estimated
01:50PM 19.6963 -78.4137 345° North  Level Estimated
01:51PM 19.8129 -78.4481 345° North  Level Estimated
01:52PM 19.9295 -78.4825 345° North  Level Estimated
01:53PM 20.0461 -78.5169 344° North  Level Estimated
01:54PM 20.1627 -78.5514 344° North  Level Estimated
01:55PM 20.2793 -78.5860 344° North  Level Estimated
01:56PM 20.3958 -78.6205 344° North  Level Estimated
01:57PM 20.5124 -78.6552 344° North  Level Estimated
01:58PM 20.6290 -78.6899 344° North  Level Estimated
01:59PM 20.7455 -78.7246 344° North  Level Estimated
02:00PM 20.8620 -78.7595 344° North  Level Estimated
02:01PM 20.9786 -78.7943 344° North  Level Estimated
02:02PM 21.0951 -78.8292 344° North  Level Estimated
02:03PM 21.2116 -78.8642 344° North  Level Estimated
02:04PM 21.3281 -78.8992 344° North  Level Estimated
02:05PM 21.4447 -78.9343 344° North  Level Estimated
02:06PM 21.5612 -78.9694 344° North  Level Estimated
02:07PM 21.6777 -79.0046 344° North  Level Estimated
02:08PM 21.7941 -79.0399 344° North  Level Estimated
02:09PM 21.9106 -79.0752 344° North  Level Estimated
02:10PM 22.0271 -79.1105 344° North  Level Estimated
02:11PM 22.1436 -79.1460 344° North  Level Estimated
02:12PM 22.2600 -79.1814 344° North  Level Estimated
02:13PM 22.3765 -79.2170 344° North  Level Estimated
02:14PM 22.4929 -79.2526 344° North  Level Estimated
02:15PM 22.6093 -79.2882 344° North  Level Estimated
02:16PM 22.7257 -79.3240 344° North  Level Estimated
02:17PM 22.8422 -79.3597 344° North  Level Estimated
02:18PM 22.9586 -79.3956 344° North  Level Estimated
02:19PM 23.0750 -79.4315 344° North  Level Estimated
02:20PM 23.1914 -79.4675 344° North  Level Estimated
02:21PM 23.3078 -79.5035 344° North  Level Estimated
02:22PM 23.4241 -79.5396 344° North  Level Estimated
02:23PM 23.5405 -79.5757 344° North  Level Estimated
02:24PM 23.6569 -79.6120 344° North  Level Estimated
02:25PM 23.7732 -79.6482 344° North  Level Estimated
02:26PM 23.8895 -79.6846 344° North  Level Estimated
02:27PM 24.0059 -79.7210 344° North  Level Estimated
02:28PM 24.1222 -79.7575 344° North  Level Estimated
02:29PM 24.2385 -79.7940 344° North  Level Estimated
02:30PM 24.3548 -79.8306 344° North  Level Estimated
02:31PM 24.4711 -79.8673 344° North  Level Estimated
02:32PM 24.5874 -79.9041 344° North  Level Estimated
02:33PM 24.7037 -79.9409 344° North  Level Estimated
02:34PM 24.8200 -79.9778 344° North  Level Estimated
02:35PM 24.9362 -80.0147 344° North  Level Estimated
02:36PM 25.0525 -80.0518 344° North  Level Estimated
02:37PM 25.1687 -80.0889 344° North  Level Estimated
02:38PM 25.2850 -80.1260 344° North  Level Estimated
02:39PM 25.4012 -80.1633 344° North  Level Estimated
02:40PM 25.5174 -80.2006 344° North  Level Estimated
02:40PM 25.8080 -80.2370 344° North 221 254 7,900  Level FlightAware
02:40PM 25.8290 -80.2530 326° Northwest 215 247 7,900 -120 Level FlightAware
02:41PM 25.8490 -80.2700 323° Northwest 220 253 7,800 -720 Descending FlightAware
02:41PM 25.8550 -80.2900 288° West 217 250 7,400 -1,200 Descending FlightAware
02:42PM 25.8580 -80.3180 277° West 217 250 6,900 -1,140 Descending FlightAware
02:42PM 25.8630 -80.3510 280° West 211 243 6,400 -1,140 Descending FlightAware
02:43PM 25.8690 -80.3780 284° West 212 244 5,900 -1,140 Descending FlightAware
02:44PM 25.8660 -80.4540 268° West 206 237 4,600 -960 Descending FlightAware
02:44PM 25.8580 -80.4830 253° West 189 217 4,300 -780 Descending FlightAware
02:45PM 25.8480 -80.5060 244° Southwest 186 214 3,900 -600 Descending FlightAware
02:45PM 25.8450 -80.5210 257° West 186 214 3,900 -720 Level FlightAware
02:45PM 25.8560 -80.5400 303° West 187 215 3,400 -960 Descending FlightAware
02:46PM 25.8800 -80.5330 15° North 184 212 3,000 -780 Descending FlightAware
02:46PM 25.8840 -80.5230 66° East 184 212 2,900 -300 Descending FlightAware
02:46PM 25.8860 -80.5100 80° East 185 213 2,900  Level FlightAware
02:47PM 25.8830 -80.4690 95° East 182 209 2,900 -180 Level FlightAware
02:47PM 25.8760 -80.4520 115° Southeast 181 208 2,700 -780 Descending FlightAware
02:48PM 25.8610 -80.4240 121° Southeast 180 207 2,200 -960 Descending FlightAware
02:48PM 25.8480 -80.3980 119° Southeast 180 207 1,700 -900 Descending FlightAware
02:49PM 25.8380 -80.3780 119° Southeast 167 192 1,400 -780 Descending FlightAware
02:49PM 25.8280 -80.3590 120° Southeast 148 170 1,000 -840 Descending FlightAware
02:50PM 25.8200 -80.3420 118° Southeast 152 175 700 -900 Descending FlightAware
02:50PM 25.8130 -80.3290 121° Southeast 152 175 400 -840 Descending FlightAware
02:51PM 25.8040 -80.3110 119° Southeast 149 171 100 -660 Descending FlightAware
02:51PM 25.7950 -80.2930 119° Southeast 130 150 -240 Descending FlightAware
02:51PM 25.7910 -80.2860 122° Southeast 70 81  Level FlightAware
02:52PM 25.7900 -80.2810 103° East 18 21  Level FlightAware
02:53PM 25.7890 -80.2800 138° Southeast 23 26  Level FlightAware
02:53PM 25.7890 -80.2790 90° East 28 32  Level FlightAware
02:54PM 25.7890 -80.2760 90° East 33 38  Level FlightAware
02:54PM 25.7890 -80.2750 90° East 25 29  Level FlightAware
02:54PM 25.7900 -80.2750 360° North 26 30  Level FlightAware
02:55PM 25.7920 -80.2750 360° North 24 28  Level FlightAware
02:56PM 25.7920 -80.2740 90° East 9 10  Level FlightAware
02:59PM 25.7833 -80.2833 350° North  Level FlightAware Approximate
03:00PM 25.7954 -80.2901 350° North  Level Estimated